Time;durP1;ratioP1;P1;durP2;ratioP2;P2;SDS_P1;SDS_P2;PMS_P1;PMS_P2;Temp;Humidity;BMP_temperature;BMP_pressure;BME280_temperature;BME280_humidity;BME280_pressure;Samples;Min_cycle;Max_cycle;Signal;HPM_P1;HPM_P2
2022/07/01 00:00:23;;;;;;;11.00;7.03;;;;;;;;;;4983782;28;20061;-82
2022/07/01 00:03:16;;;;;;;11.90;6.57;;;;;;;;;;5005678;28;20114;-83
2022/07/01 00:05:43;;;;;;;9.68;6.43;;;;;;;;;;5030667;28;20033;-83
2022/07/01 00:08:15;;;;;;;8.85;6.32;;;;;;;;;;5014265;28;20479;-82
2022/07/01 00:10:43;;;;;;;11.70;5.50;;;;;;;;;;5029586;28;20106;-83
2022/07/01 00:13:11;;;;;;;8.82;6.43;;;;;;;;;;5003459;28;20049;-83
2022/07/01 00:16:17;;;;;;;8.20;5.13;;;;;;;;;;4999752;28;20111;-83
2022/07/01 00:19:09;;;;;;;9.85;4.50;;;;;;;;;;5017761;28;20069;-82
2022/07/01 00:21:38;;;;;;;10.15;4.43;;;;;;;;;;5006650;28;20071;-82
2022/07/01 00:24:06;;;;;;;5.65;4.35;;;;;;;;;;5018633;28;20045;-83
2022/07/01 00:26:39;;;;;;;8.40;3.65;;;;;;;;;;5008866;28;20916;-81
2022/07/01 00:29:11;;;;;;;7.43;3.75;;;;;;;;;;4993652;28;20136;-81
2022/07/01 00:31:40;;;;;;;4.55;2.67;;;;;;;;;;4997795;28;20057;-81
2022/07/01 00:34:07;;;;;;;3.65;2.38;;;;;;;;;;5015506;28;20940;-81
2022/07/01 00:36:35;;;;;;;6.40;2.30;;;;;;;;;;5015956;28;20045;-81
2022/07/01 00:39:07;;;;;;;4.22;2.60;;;;;;;;;;5012407;28;20040;-83
2022/07/01 00:41:42;;;;;;;4.32;2.45;;;;;;;;;;5024638;28;20046;-82
2022/07/01 00:44:17;;;;;;;4.10;2.70;;;;;;;;;;5001669;28;20034;-82
2022/07/01 00:46:50;;;;;;;4.78;2.63;;;;;;;;;;5025995;28;20048;-82
2022/07/01 00:49:25;;;;;;;5.20;2.30;;;;;;;;;;5015184;28;20049;-82
2022/07/01 00:51:55;;;;;;;5.05;2.47;;;;;;;;;;5023398;28;20913;-82
2022/07/01 01:08:38;;;;;;;;;;;;;;;;;;5023935;28;20117;-87
2022/07/01 01:11:11;;;;;;;9.27;2.95;;;;;;;;;;5027070;28;19957;-82
2022/07/01 01:13:39;;;;;;;11.43;3.58;;;;;;;;;;5012163;28;20049;-81
2022/07/01 03:00:32;;;;;;;7.25;3.35;;;;;;;;;;5021534;28;20134;-82
2022/07/01 03:03:23;;;;;;;5.97;3.72;;;;;;;;;;5014900;28;20029;-82
2022/07/01 03:23:13;;;;;;;6.80;3.80;;;;;;;;;;5015950;28;20048;-82
2022/07/01 03:39:32;;;;;;;8.93;5.25;;;;;;;;;;5001995;28;20034;-82
2022/07/01 03:42:00;;;;;;;8.68;4.60;;;;;;;;;;5016599;28;20049;-82
2022/07/01 04:27:09;;;;;;;10.45;7.25;;;;;;;;;;5007120;28;20083;-82
2022/07/01 04:50:59;;;;;;;8.98;5.32;;;;;;;;;;5025108;28;20457;-83
2022/07/01 04:53:55;;;;;;;;;;;;;;;;;;5023126;28;20046;-83
2022/07/01 05:11:16;;;;;;;6.43;4.40;;;;;;;;;;4982327;28;20077;-84
2022/07/01 05:13:43;;;;;;;7.80;4.70;;;;;;;;;;4973153;28;20069;-84
2022/07/01 05:16:11;;;;;;;8.38;4.65;;;;;;;;;;4957119;28;20128;-84
2022/07/01 05:22:16;;;;;;;11.27;5.57;;;;;;;;;;4969602;28;20077;-82
2022/07/01 05:24:43;;;;;;;9.98;4.70;;;;;;;;;;4958093;28;20185;-83
2022/07/01 05:27:11;;;;;;;11.38;4.93;;;;;;;;;;4990019;28;20057;-85
2022/07/01 05:29:39;;;;;;;10.82;4.32;;;;;;;;;;5021455;28;20045;-83
2022/07/01 05:32:07;;;;;;;9.48;4.50;;;;;;;;;;4977716;28;20100;-84
2022/07/01 05:34:38;;;;;;;8.38;4.80;;;;;;;;;;5024034;28;20054;-84
2022/07/01 05:37:09;;;;;;;9.95;5.18;;;;;;;;;;5017658;28;20058;-84
2022/07/01 05:40:01;;;;;;;11.93;4.50;;;;;;;;;;5014252;28;20878;-87
2022/07/01 05:42:43;;;;;;;14.85;4.85;;;;;;;;;;5014868;28;20827;-83
2022/07/01 05:45:11;;;;;;;12.45;4.68;;;;;;;;;;5002151;28;20058;-83
2022/07/01 05:48:06;;;;;;;10.15;4.55;;;;;;;;;;5000057;28;20080;-83
2022/07/01 05:50:34;;;;;;;10.45;3.90;;;;;;;;;;4999180;28;20572;-83
2022/07/01 05:53:02;;;;;;;9.32;3.60;;;;;;;;;;4983464;28;20052;-83
2022/07/01 05:56:00;;;;;;;7.95;4.03;;;;;;;;;;4999848;28;20046;-83
2022/07/01 05:58:27;;;;;;;10.23;3.45;;;;;;;;;;4983895;28;20056;-83
2022/07/01 06:00:55;;;;;;;6.25;3.20;;;;;;;;;;5011616;28;20896;-84
2022/07/01 06:03:36;;;;;;;7.70;2.70;;;;;;;;;;4988195;28;20050;-84
2022/07/01 06:06:03;;;;;;;6.07;2.78;;;;;;;;;;4983827;28;20050;-84
2022/07/01 06:08:35;;;;;;;6.43;2.58;;;;;;;;;;4994260;28;20068;-83
2022/07/01 06:11:08;;;;;;;5.50;2.13;;;;;;;;;;5014522;28;20053;-83
2022/07/01 06:13:35;;;;;;;7.18;2.53;;;;;;;;;;5015968;28;20073;-83
2022/07/01 06:16:04;;;;;;;5.55;2.15;;;;;;;;;;4985501;28;20478;-83
2022/07/01 06:18:31;;;;;;;8.13;2.25;;;;;;;;;;5017759;28;20065;-83
2022/07/01 06:20:59;;;;;;;5.13;1.90;;;;;;;;;;4984158;28;20029;-83
2022/07/01 06:23:31;;;;;;;4.93;1.80;;;;;;;;;;4998784;28;20385;-83
2022/07/01 06:25:59;;;;;;;5.90;2.00;;;;;;;;;;4983257;28;20108;-83
2022/07/01 06:28:29;;;;;;;7.78;1.95;;;;;;;;;;4983973;28;20489;-83
2022/07/01 06:31:01;;;;;;;8.32;2.03;;;;;;;;;;4979437;28;20062;-83
2022/07/01 06:33:30;;;;;;;5.63;1.70;;;;;;;;;;4982502;28;20048;-83
2022/07/01 06:35:57;;;;;;;8.27;1.90;;;;;;;;;;4982141;28;20490;-83
2022/07/01 06:38:25;;;;;;;4.97;1.70;;;;;;;;;;4998121;28;20046;-82
2022/07/01 06:41:27;;;;;;;6.90;1.75;;;;;;;;;;5001338;28;20646;-83
2022/07/01 06:44:00;;;;;;;5.47;1.65;;;;;;;;;;5010843;28;20571;-83
2022/07/01 06:46:29;;;;;;;5.65;1.58;;;;;;;;;;5003564;28;20045;-83
2022/07/01 06:49:02;;;;;;;7.05;1.90;;;;;;;;;;5011187;28;20041;-83
2022/07/01 06:51:29;;;;;;;5.18;1.45;;;;;;;;;;5011598;28;20041;-83
2022/07/01 06:54:02;;;;;;;5.93;1.45;;;;;;;;;;5014083;28;20500;-83
2022/07/01 06:56:30;;;;;;;5.55;1.55;;;;;;;;;;5013279;28;20045;-82
2022/07/01 06:58:57;;;;;;;6.10;1.45;;;;;;;;;;4998413;28;20037;-83
2022/07/01 07:01:26;;;;;;;7.20;1.70;;;;;;;;;;5014171;28;20100;-83
2022/07/01 07:03:54;;;;;;;6.05;1.73;;;;;;;;;;5015798;28;20441;-83
2022/07/01 07:06:45;;;;;;;2.45;1.15;;;;;;;;;;5013396;28;20038;-83
2022/07/01 07:09:13;;;;;;;7.15;1.42;;;;;;;;;;5015499;28;20523;-83
2022/07/01 07:11:41;;;;;;;2.95;1.20;;;;;;;;;;4978589;28;20049;-83
2022/07/01 07:14:09;;;;;;;3.90;1.90;;;;;;;;;;4988764;28;20045;-83
2022/07/01 07:17:01;;;;;;;6.55;1.33;;;;;;;;;;5011605;28;20033;-83
2022/07/01 07:19:29;;;;;;;4.07;1.25;;;;;;;;;;4994788;28;20049;-83
2022/07/01 07:21:57;;;;;;;3.80;1.48;;;;;;;;;;4997470;28;20037;-83
2022/07/01 07:24:49;;;;;;;2.85;1.25;;;;;;;;;;4997060;28;20092;-83
2022/07/01 07:27:42;;;;;;;4.43;1.33;;;;;;;;;;5015236;28;20065;-83
2022/07/01 07:30:16;;;;;;;3.35;1.30;;;;;;;;;;5014805;28;20042;-83
2022/07/01 07:32:44;;;;;;;3.70;1.33;;;;;;;;;;4996729;28;20132;-83
2022/07/01 07:35:13;;;;;;;3.25;1.60;;;;;;;;;;5011178;28;20045;-84
2022/07/01 07:37:43;;;;;;;3.50;1.52;;;;;;;;;;4976927;28;20048;-84
2022/07/01 07:40:17;;;;;;;6.28;2.17;;;;;;;;;;5007330;28;20034;-83
2022/07/01 07:42:53;;;;;;;5.47;1.88;;;;;;;;;;5009599;28;20033;-84
2022/07/01 07:45:22;;;;;;;6.72;1.73;;;;;;;;;;4975619;28;20045;-83
2022/07/01 07:47:54;;;;;;;5.82;1.85;;;;;;;;;;5005872;28;20451;-84
2022/07/01 07:50:27;;;;;;;3.78;1.60;;;;;;;;;;5010532;28;20069;-83
2022/07/01 07:52:55;;;;;;;5.15;1.70;;;;;;;;;;5009517;28;20060;-84
2022/07/01 07:55:24;;;;;;;4.25;1.90;;;;;;;;;;5013037;28;20091;-84
2022/07/01 07:57:51;;;;;;;2.92;1.70;;;;;;;;;;5009773;28;20042;-83
2022/07/01 08:00:20;;;;;;;5.32;2.08;;;;;;;;;;4996992;28;20520;-83
2022/07/01 08:03:13;;;;;;;3.03;1.58;;;;;;;;;;5012729;28;20051;-83
2022/07/01 08:06:06;;;;;;;7.53;2.00;;;;;;;;;;5011874;28;20034;-84
2022/07/01 08:08:47;;;;;;;4.22;1.80;;;;;;;;;;4996194;28;20065;-84
2022/07/01 08:11:16;;;;;;;5.10;1.77;;;;;;;;;;5012672;28;20080;-84
2022/07/01 08:13:45;;;;;;;5.97;1.90;;;;;;;;;;4993546;28;20490;-83
2022/07/01 08:16:17;;;;;;;4.72;1.83;;;;;;;;;;5010815;28;20052;-84
2022/07/01 08:18:45;;;;;;;5.65;2.08;;;;;;;;;;5009670;28;20069;-83
2022/07/01 08:21:37;;;;;;;7.88;1.75;;;;;;;;;;5009629;28;20052;-84
2022/07/01 08:24:06;;;;;;;6.75;2.25;;;;;;;;;;5006904;28;20136;-84
2022/07/01 08:26:33;;;;;;;3.63;2.08;;;;;;;;;;4976220;28;20045;-84
2022/07/01 08:29:01;;;;;;;4.43;2.00;;;;;;;;;;4993404;28;20099;-83
2022/07/01 08:31:31;;;;;;;6.43;2.38;;;;;;;;;;4962017;28;20053;-83
2022/07/01 08:34:02;;;;;;;6.22;1.98;;;;;;;;;;5010054;28;20037;-83
2022/07/01 08:36:30;;;;;;;4.68;1.83;;;;;;;;;;5010122;28;20507;-83
2022/07/01 08:39:25;;;;;;;5.57;2.25;;;;;;;;;;5006508;28;20510;-84
2022/07/01 08:41:51;;;;;;;4.95;1.73;;;;;;;;;;4990870;28;20049;-83
2022/07/01 08:44:20;;;;;;;4.82;2.15;;;;;;;;;;4998968;28;20129;-83
2022/07/01 08:46:50;;;;;;;4.15;2.10;;;;;;;;;;5008055;28;20188;-83
2022/07/01 08:49:17;;;;;;;5.68;2.40;;;;;;;;;;5009751;28;20961;-83
2022/07/01 08:54:41;;;;;;;6.63;2.40;;;;;;;;;;5012083;28;20670;-84
2022/07/01 08:57:09;;;;;;;4.80;2.10;;;;;;;;;;4980155;28;20120;-84
2022/07/01 09:00:06;;;;;;;4.40;2.65;;;;;;;;;;5009767;28;20045;-83
2022/07/01 09:03:03;;;;;;;8.55;2.40;;;;;;;;;;4993749;28;20042;-83
2022/07/01 09:05:31;;;;;;;6.10;2.97;;;;;;;;;;4995671;28;20049;-82
2022/07/01 09:08:27;;;;;;;5.45;2.58;;;;;;;;;;5011529;28;20046;-83
2022/07/01 09:11:23;;;;;;;4.75;2.55;;;;;;;;;;5011034;28;20603;-83
2022/07/01 09:14:10;;;;;;;8.25;2.78;;;;;;;;;;4994470;28;20055;-82
2022/07/01 09:17:04;;;;;;;5.35;2.90;;;;;;;;;;4995862;28;20042;-83
2022/07/01 09:19:35;;;;;;;6.18;2.80;;;;;;;;;;5010605;28;20045;-83
2022/07/01 09:22:29;;;;;;;5.80;2.58;;;;;;;;;;5010057;28;20044;-83
2022/07/01 09:28:39;;;;;;;6.15;2.90;;;;;;;;;;5014248;28;20224;-82
2022/07/01 09:31:07;;;;;;;5.32;3.08;;;;;;;;;;5014052;28;20132;-83
2022/07/01 09:34:04;;;;;;;6.18;2.60;;;;;;;;;;5014820;28;20208;-83
2022/07/01 09:36:32;;;;;;;5.13;2.90;;;;;;;;;;5016117;28;20052;-83
2022/07/01 09:39:04;;;;;;;3.80;2.42;;;;;;;;;;5014984;28;20061;-83
2022/07/01 09:41:56;;;;;;;5.10;2.58;;;;;;;;;;5014956;28;20100;-83
2022/07/01 09:44:23;;;;;;;4.78;2.65;;;;;;;;;;4980430;28;20046;-82
2022/07/01 09:46:57;;;;;;;5.50;2.67;;;;;;;;;;4974214;28;20396;-83
2022/07/01 09:49:34;;;;;;;5.97;2.95;;;;;;;;;;5012587;28;20431;-82
2022/07/01 09:52:01;;;;;;;4.68;3.10;;;;;;;;;;4981302;28;20080;-82
2022/07/01 09:54:30;;;;;;;6.05;2.92;;;;;;;;;;5010015;28;20041;-83
2022/07/01 09:57:04;;;;;;;7.90;3.63;;;;;;;;;;5014452;28;20076;-82
2022/07/01 09:59:31;;;;;;;4.35;2.88;;;;;;;;;;5012932;28;20048;-83
2022/07/01 10:05:04;;;;;;;5.50;3.30;;;;;;;;;;5012783;28;20065;-83
2022/07/01 10:07:50;;;;;;;5.78;3.22;;;;;;;;;;4996721;28;20085;-82
2022/07/01 10:10:39;;;;;;;5.63;3.25;;;;;;;;;;4996649;28;20064;-82
2022/07/01 10:13:11;;;;;;;6.03;3.10;;;;;;;;;;5013593;28;20067;-83
2022/07/01 10:15:41;;;;;;;6.25;3.20;;;;;;;;;;5005155;28;20082;-83
2022/07/01 10:18:21;;;;;;;4.60;2.90;;;;;;;;;;4966331;28;20053;-83
2022/07/01 10:20:50;;;;;;;6.97;3.20;;;;;;;;;;4992079;28;20045;-82
2022/07/01 10:23:43;;;;;;;4.25;3.03;;;;;;;;;;4998991;28;20032;-82
2022/07/01 10:26:18;;;;;;;4.20;2.65;;;;;;;;;;5010018;28;20093;-82
2022/07/01 10:28:53;;;;;;;4.53;3.00;;;;;;;;;;5011575;28;20045;-82
2022/07/01 10:31:35;;;;;;;6.47;3.42;;;;;;;;;;5009586;28;20037;-82
2022/07/01 10:34:13;;;;;;;6.55;3.03;;;;;;;;;;4993230;28;20045;-82
2022/07/01 10:36:41;;;;;;;5.25;2.88;;;;;;;;;;5007095;28;20073;-82
2022/07/01 10:39:22;;;;;;;4.18;2.65;;;;;;;;;;4981391;28;20046;-82
2022/07/01 10:41:58;;;;;;;7.13;2.97;;;;;;;;;;4982244;28;20036;-82
2022/07/01 10:45:10;;;;;;;4.40;3.08;;;;;;;;;;5014406;28;20045;-82
2022/07/01 10:47:39;;;;;;;7.90;2.80;;;;;;;;;;4980048;28;20576;-82
2022/07/01 10:50:10;;;;;;;5.22;2.72;;;;;;;;;;5014270;28;20143;-82
2022/07/01 10:52:39;;;;;;;4.38;2.78;;;;;;;;;;5011443;28;20053;-83
2022/07/01 10:55:08;;;;;;;5.80;2.60;;;;;;;;;;4990140;28;21020;-82
2022/07/01 10:57:41;;;;;;;6.57;2.92;;;;;;;;;;4996443;28;20049;-83
2022/07/01 11:00:09;;;;;;;5.00;2.60;;;;;;;;;;4991287;28;20080;-83
2022/07/01 11:02:38;;;;;;;6.60;3.22;;;;;;;;;;4999426;28;20904;-82
2022/07/01 11:05:31;;;;;;;5.25;2.88;;;;;;;;;;5015066;28;20042;-82
2022/07/01 11:07:59;;;;;;;5.68;2.92;;;;;;;;;;5016406;28;20052;-82
2022/07/01 11:10:39;;;;;;;5.68;2.78;;;;;;;;;;5014120;28;20045;-82
2022/07/01 11:13:08;;;;;;;6.50;3.58;;;;;;;;;;4996162;28;20112;-82
2022/07/01 11:15:35;;;;;;;7.97;3.10;;;;;;;;;;4997605;28;20042;-82
2022/07/01 11:18:29;;;;;;;9.05;3.35;;;;;;;;;;5013251;28;20040;-82
2022/07/01 11:21:09;;;;;;;6.60;3.60;;;;;;;;;;5012804;28;20835;-82
2022/07/01 11:23:52;;;;;;;8.75;3.85;;;;;;;;;;5014932;28;20038;-82
2022/07/01 11:26:43;;;;;;;5.85;3.38;;;;;;;;;;5011149;28;21020;-82
2022/07/01 11:29:23;;;;;;;5.72;3.67;;;;;;;;;;5015560;28;20128;-82
2022/07/01 11:31:52;;;;;;;8.25;4.35;;;;;;;;;;5011110;28;20046;-82
2022/07/01 11:34:35;;;;;;;6.80;4.05;;;;;;;;;;5001457;28;20091;-83
2022/07/01 11:40:09;;;;;;;11.27;4.40;;;;;;;;;;5014265;28;20041;-83
2022/07/01 11:42:42;;;;;;;6.57;4.25;;;;;;;;;;5012424;28;20137;-83
2022/07/01 11:45:26;;;;;;;7.13;4.13;;;;;;;;;;4992882;28;20125;-83
2022/07/01 11:48:30;;;;;;;6.13;4.20;;;;;;;;;;4996168;28;20471;-82
2022/07/01 11:50:59;;;;;;;8.15;4.40;;;;;;;;;;5011535;28;20497;-82
2022/07/01 11:53:28;;;;;;;7.97;4.40;;;;;;;;;;5012188;28;20045;-83
2022/07/01 11:55:55;;;;;;;8.68;4.40;;;;;;;;;;5013283;28;20592;-83
2022/07/01 11:58:23;;;;;;;6.90;4.10;;;;;;;;;;5012308;28;20073;-83
2022/07/01 12:00:51;;;;;;;7.18;4.90;;;;;;;;;;5007654;28;20042;-82
2022/07/01 12:03:31;;;;;;;7.03;4.70;;;;;;;;;;5009830;28;20420;-84
2022/07/01 12:06:24;;;;;;;7.78;4.38;;;;;;;;;;5012601;28;20038;-83
2022/07/01 12:08:53;;;;;;;7.43;4.28;;;;;;;;;;5013168;28;20044;-83
2022/07/01 12:11:23;;;;;;;5.80;3.85;;;;;;;;;;4996560;28;20552;-84
2022/07/01 12:13:50;;;;;;;11.18;4.55;;;;;;;;;;5012090;28;20045;-83
2022/07/01 12:16:25;;;;;;;9.38;4.88;;;;;;;;;;5011504;28;20037;-83
2022/07/01 12:19:00;;;;;;;7.82;4.43;;;;;;;;;;5013876;28;20523;-84
2022/07/01 12:21:29;;;;;;;7.57;5.15;;;;;;;;;;4997813;28;20048;-83
2022/07/01 12:24:22;;;;;;;8.25;4.82;;;;;;;;;;5000958;28;20434;-83
2022/07/01 12:26:58;;;;;;;7.43;4.07;;;;;;;;;;5011787;28;20930;-83
2022/07/01 12:29:47;;;;;;;8.20;4.15;;;;;;;;;;4996518;28;20053;-83
2022/07/01 12:32:17;;;;;;;7.85;4.20;;;;;;;;;;4980850;28;20046;-83
2022/07/01 12:34:48;;;;;;;7.22;4.65;;;;;;;;;;4997837;28;20073;-83
2022/07/01 12:37:39;;;;;;;6.90;4.35;;;;;;;;;;5011871;28;20676;-83
2022/07/01 12:40:20;;;;;;;8.93;5.30;;;;;;;;;;5014881;28;20046;-84
2022/07/01 12:42:47;;;;;;;8.13;4.40;;;;;;;;;;5007676;28;20069;-83
2022/07/01 12:45:21;;;;;;;8.88;4.63;;;;;;;;;;4997222;28;21065;-83
2022/07/01 12:47:51;;;;;;;8.65;4.88;;;;;;;;;;5005404;28;20045;-84
2022/07/01 12:50:23;;;;;;;7.72;5.15;;;;;;;;;;5014762;28;20041;-84
2022/07/01 12:53:03;;;;;;;7.40;4.70;;;;;;;;;;5010231;28;20038;-83
2022/07/01 12:55:43;;;;;;;7.25;4.43;;;;;;;;;;5014333;28;20083;-84
2022/07/01 12:58:15;;;;;;;8.00;4.22;;;;;;;;;;4995813;28;20455;-84
2022/07/01 13:00:44;;;;;;;7.95;4.57;;;;;;;;;;5011919;28;20077;-83
2022/07/01 13:03:11;;;;;;;7.25;4.75;;;;;;;;;;5000567;28;20120;-84
2022/07/01 13:05:40;;;;;;;9.68;5.20;;;;;;;;;;5018006;28;20487;-84
2022/07/01 13:08:09;;;;;;;11.48;5.25;;;;;;;;;;4999998;28;20138;-83
2022/07/01 13:10:41;;;;;;;8.27;4.78;;;;;;;;;;5017646;28;20042;-83
2022/07/01 13:13:10;;;;;;;9.02;5.00;;;;;;;;;;5015649;28;20050;-83
2022/07/01 13:15:38;;;;;;;9.73;4.60;;;;;;;;;;5016335;28;20053;-84
2022/07/01 13:18:08;;;;;;;7.13;4.57;;;;;;;;;;4997505;28;20980;-83
2022/07/01 13:20:43;;;;;;;12.40;4.38;;;;;;;;;;5018514;28;20048;-84
2022/07/01 13:23:11;;;;;;;6.50;4.25;;;;;;;;;;5016780;28;20043;-83
2022/07/01 13:25:40;;;;;;;8.75;4.40;;;;;;;;;;5015360;28;20037;-83
2022/07/01 13:28:08;;;;;;;8.70;4.53;;;;;;;;;;5015891;28;20041;-83
2022/07/01 13:30:59;;;;;;;8.40;3.90;;;;;;;;;;5014222;28;20201;-84
2022/07/01 13:33:27;;;;;;;7.68;3.72;;;;;;;;;;5013163;28;20079;-84
2022/07/01 13:36:05;;;;;;;8.93;4.20;;;;;;;;;;5001241;28;20050;-84
2022/07/01 13:38:35;;;;;;;8.10;3.83;;;;;;;;;;5000605;28;20676;-84
2022/07/01 13:41:03;;;;;;;8.07;4.30;;;;;;;;;;5017318;28;20108;-83
2022/07/01 13:43:31;;;;;;;7.97;4.00;;;;;;;;;;5015553;28;20045;-83
2022/07/01 13:46:23;;;;;;;11.00;4.20;;;;;;;;;;5013255;28;20108;-84
2022/07/01 13:48:52;;;;;;;5.88;3.80;;;;;;;;;;5016646;28;20060;-84
2022/07/01 13:51:44;;;;;;;4.70;3.92;;;;;;;;;;5016848;28;20029;-84
2022/07/01 13:54:17;;;;;;;9.30;4.00;;;;;;;;;;4998449;28;20049;-84
2022/07/01 13:56:45;;;;;;;6.20;3.20;;;;;;;;;;5016736;28;21024;-84
2022/07/01 13:59:13;;;;;;;6.55;3.50;;;;;;;;;;5012956;28;20184;-84
2022/07/01 14:01:42;;;;;;;6.63;3.40;;;;;;;;;;5012454;28;20037;-84
2022/07/01 14:04:13;;;;;;;5.28;3.00;;;;;;;;;;5016587;28;20064;-84
2022/07/01 14:06:41;;;;;;;5.70;3.30;;;;;;;;;;4999914;28;20049;-84
2022/07/01 14:09:14;;;;;;;8.88;3.25;;;;;;;;;;4975734;28;20069;-84
2022/07/01 14:11:41;;;;;;;8.98;3.72;;;;;;;;;;5012894;28;20042;-84
2022/07/01 14:14:09;;;;;;;5.78;3.58;;;;;;;;;;4975594;28;20056;-85
2022/07/01 14:16:37;;;;;;;7.28;3.50;;;;;;;;;;4998092;28;20127;-84
2022/07/01 14:19:05;;;;;;;7.85;3.08;;;;;;;;;;4998400;28;20091;-84
2022/07/01 14:21:33;;;;;;;7.22;3.38;;;;;;;;;;4998313;28;20896;-86
2022/07/01 14:24:04;;;;;;;6.10;3.08;;;;;;;;;;5015812;28;20044;-85
2022/07/01 14:26:32;;;;;;;5.68;3.47;;;;;;;;;;5016499;28;20128;-85
2022/07/01 14:28:59;;;;;;;5.10;3.10;;;;;;;;;;4996178;28;20076;-84
2022/07/01 14:31:32;;;;;;;4.18;3.03;;;;;;;;;;5015212;28;20041;-84
2022/07/01 14:34:01;;;;;;;9.15;3.50;;;;;;;;;;5015488;28;20045;-84
2022/07/01 14:36:29;;;;;;;6.68;3.58;;;;;;;;;;5006637;28;20499;-84
2022/07/01 14:38:57;;;;;;;5.45;3.40;;;;;;;;;;5015177;28;20136;-84
2022/07/01 14:41:25;;;;;;;5.68;3.40;;;;;;;;;;5014620;28;20134;-83
2022/07/01 14:44:19;;;;;;;6.85;3.47;;;;;;;;;;5013479;28;20132;-84
2022/07/01 14:46:47;;;;;;;7.93;3.40;;;;;;;;;;5013619;28;20783;-84
2022/07/01 14:49:19;;;;;;;6.03;3.30;;;;;;;;;;5016180;28;20065;-84
2022/07/01 14:51:47;;;;;;;5.85;3.53;;;;;;;;;;5015444;28;20045;-83
2022/07/01 14:54:39;;;;;;;5.03;3.33;;;;;;;;;;5006325;28;20046;-84
2022/07/01 14:57:34;;;;;;;6.97;3.67;;;;;;;;;;5009080;28;20125;-83
2022/07/01 15:00:03;;;;;;;5.03;3.10;;;;;;;;;;5013301;28;20049;-83
2022/07/01 15:02:32;;;;;;;5.72;3.22;;;;;;;;;;5013404;28;20037;-83
2022/07/01 15:04:59;;;;;;;6.50;3.10;;;;;;;;;;5014210;28;20499;-84
2022/07/01 15:07:28;;;;;;;5.13;3.50;;;;;;;;;;5007682;28;20073;-83
2022/07/01 15:10:02;;;;;;;7.70;3.00;;;;;;;;;;5014623;28;20144;-84
2022/07/01 15:12:30;;;;;;;9.35;3.60;;;;;;;;;;4997614;28;20124;-84
2022/07/01 15:14:57;;;;;;;7.38;3.22;;;;;;;;;;5012242;28;20042;-84
2022/07/01 15:17:26;;;;;;;4.63;3.05;;;;;;;;;;5007552;28;20467;-83
2022/07/01 15:19:53;;;;;;;4.07;3.08;;;;;;;;;;4995167;28;20057;-84
2022/07/01 15:22:27;;;;;;;6.68;2.85;;;;;;;;;;5012550;28;20037;-84
2022/07/01 15:24:55;;;;;;;5.72;2.90;;;;;;;;;;4997572;28;20049;-84
2022/07/01 15:27:23;;;;;;;5.80;3.45;;;;;;;;;;5013710;28;20056;-83
2022/07/01 15:29:55;;;;;;;5.60;3.40;;;;;;;;;;5013797;28;20131;-83
2022/07/01 15:32:23;;;;;;;7.75;3.70;;;;;;;;;;5004436;28;20041;-83
2022/07/01 15:34:56;;;;;;;6.78;3.47;;;;;;;;;;5012522;28;20322;-84
2022/07/01 15:37:23;;;;;;;5.63;3.50;;;;;;;;;;4998163;28;20749;-83
2022/07/01 15:39:51;;;;;;;7.10;3.70;;;;;;;;;;5009536;28;20042;-83
2022/07/01 15:42:29;;;;;;;8.02;3.80;;;;;;;;;;5013463;28;20048;-82
2022/07/01 15:44:57;;;;;;;6.95;4.10;;;;;;;;;;4995268;28;20084;-84
2022/07/01 15:50:43;;;;;;;8.05;5.32;;;;;;;;;;5011612;28;20069;-84
2022/07/01 15:53:10;;;;;;;8.40;4.00;;;;;;;;;;5012467;28;20090;-83
2022/07/01 15:56:01;;;;;;;7.28;3.85;;;;;;;;;;4996838;28;20570;-83
2022/07/01 15:58:34;;;;;;;9.88;4.65;;;;;;;;;;5006924;28;20058;-83
2022/07/01 16:01:07;;;;;;;9.75;4.57;;;;;;;;;;4994666;28;20128;-83
2022/07/01 16:03:43;;;;;;;7.55;4.57;;;;;;;;;;4994810;28;20099;-83
2022/07/01 16:06:16;;;;;;;9.63;4.63;;;;;;;;;;4997232;28;20041;-85
2022/07/01 16:08:50;;;;;;;8.77;4.43;;;;;;;;;;4993887;28;20041;-84
2022/07/01 16:11:24;;;;;;;7.97;4.60;;;;;;;;;;4997827;28;20049;-84
2022/07/01 16:13:58;;;;;;;10.70;5.13;;;;;;;;;;5014107;28;20038;-82
2022/07/01 16:16:53;;;;;;;7.28;4.50;;;;;;;;;;5019575;28;20038;-82
2022/07/01 16:19:22;;;;;;;7.25;4.47;;;;;;;;;;5017926;28;20042;-84
2022/07/01 16:21:56;;;;;;;8.93;4.75;;;;;;;;;;4988631;28;20107;-85
2022/07/01 16:24:26;;;;;;;8.32;5.40;;;;;;;;;;5000401;28;20041;-85
2022/07/01 16:26:55;;;;;;;7.68;4.72;;;;;;;;;;4996921;28;20157;-85
2022/07/01 16:29:27;;;;;;;8.18;4.63;;;;;;;;;;4993834;28;20052;-84
2022/07/01 16:32:23;;;;;;;7.38;4.45;;;;;;;;;;5004221;28;20034;-84
2022/07/01 16:34:56;;;;;;;8.38;5.07;;;;;;;;;;4992654;28;20124;-84
2022/07/01 16:37:29;;;;;;;7.63;4.47;;;;;;;;;;4994501;28;20048;-84
2022/07/01 16:40:27;;;;;;;11.20;6.28;;;;;;;;;;5004666;28;20104;-84
2022/07/01 16:42:56;;;;;;;9.43;6.10;;;;;;;;;;4988359;28;20937;-84
2022/07/01 16:45:35;;;;;;;7.25;5.43;;;;;;;;;;4995755;28;20040;-82
2022/07/01 16:48:04;;;;;;;10.93;5.95;;;;;;;;;;4994578;28;20049;-84
2022/07/01 16:50:38;;;;;;;9.38;5.32;;;;;;;;;;5015875;28;20068;-83
2022/07/01 16:53:13;;;;;;;7.25;5.05;;;;;;;;;;5018566;28;20559;-84
2022/07/01 16:56:07;;;;;;;9.57;5.00;;;;;;;;;;5017426;28;20184;-84
2022/07/01 16:58:39;;;;;;;10.82;5.47;;;;;;;;;;5018326;28;20041;-84
2022/07/01 17:01:32;;;;;;;;;;;;;;;;;;5007021;28;20061;-83
2022/07/01 17:04:00;;;;;;;8.13;4.95;;;;;;;;;;5018918;28;20016;-84
2022/07/01 17:06:52;;;;;;;10.60;5.47;;;;;;;;;;5004818;28;20080;-84
2022/07/01 17:09:22;;;;;;;8.65;5.38;;;;;;;;;;5000178;28;20045;-84
2022/07/01 17:12:15;;;;;;;8.18;5.00;;;;;;;;;;5017168;28;20061;-85
2022/07/01 17:15:09;;;;;;;9.90;5.85;;;;;;;;;;5016983;28;20496;-85
2022/07/01 17:17:39;;;;;;;6.30;4.78;;;;;;;;;;4992048;28;20046;-85
2022/07/01 17:20:09;;;;;;;10.82;4.97;;;;;;;;;;5018025;28;20096;-85
2022/07/01 17:23:23;;;;;;;7.70;4.60;;;;;;;;;;5012986;28;20083;-82
2022/07/01 17:25:56;;;;;;;6.13;4.43;;;;;;;;;;5013527;28;20447;-83
2022/07/01 17:29:18;;;;;;;8.27;4.90;;;;;;;;;;4997080;28;20042;-83
2022/07/01 17:31:57;;;;;;;8.85;4.97;;;;;;;;;;4915014;29;20087;-83
2022/07/01 17:34:31;;;;;;;7.63;4.78;;;;;;;;;;4915336;29;20051;-83
2022/07/01 17:37:04;;;;;;;7.85;4.60;;;;;;;;;;4913934;29;20079;-83
2022/07/01 17:39:35;;;;;;;10.43;4.95;;;;;;;;;;4920388;29;20056;-82
2022/07/01 17:42:07;;;;;;;7.63;5.10;;;;;;;;;;4919109;29;20557;-82
2022/07/01 17:44:36;;;;;;;7.68;4.57;;;;;;;;;;4916343;29;20043;-82
2022/07/01 17:47:06;;;;;;;6.32;4.20;;;;;;;;;;4898529;29;20068;-83
2022/07/01 17:49:35;;;;;;;7.28;3.88;;;;;;;;;;4918122;29;20059;-82
2022/07/01 17:52:05;;;;;;;6.35;4.40;;;;;;;;;;4916281;29;20059;-81
2022/07/01 17:54:58;;;;;;;6.47;3.85;;;;;;;;;;4917825;29;20056;-82
2022/07/01 17:57:50;;;;;;;10.30;5.15;;;;;;;;;;4918402;29;20075;-82
2022/07/01 18:00:17;;;;;;;8.25;3.78;;;;;;;;;;4919261;29;20172;-81
2022/07/01 18:02:49;;;;;;;7.90;3.88;;;;;;;;;;4894161;29;20052;-82
2022/07/01 18:05:18;;;;;;;5.72;3.60;;;;;;;;;;4943793;28;20387;-82
2022/07/01 18:07:45;;;;;;;5.07;3.45;;;;;;;;;;4998609;28;20095;-82
2022/07/01 18:10:37;;;;;;;9.80;4.47;;;;;;;;;;5016516;28;20065;-82
2022/07/01 18:13:06;;;;;;;6.10;4.15;;;;;;;;;;5024494;28;20124;-81
2022/07/01 18:15:39;;;;;;;9.18;4.75;;;;;;;;;;5026000;28;20049;-81
2022/07/01 18:18:09;;;;;;;12.05;4.45;;;;;;;;;;5027234;28;20104;-81
2022/07/01 18:20:50;;;;;;;12.55;5.22;;;;;;;;;;5023613;28;20133;-81
2022/07/01 18:23:49;;;;;;;10.30;5.13;;;;;;;;;;5019321;28;20065;-82
2022/07/01 18:26:18;;;;;;;11.27;5.15;;;;;;;;;;5011190;28;20061;-83
2022/07/01 18:28:50;;;;;;;8.98;4.93;;;;;;;;;;5028325;28;20042;-83
2022/07/01 18:31:22;;;;;;;8.23;4.50;;;;;;;;;;5019404;28;20069;-84
2022/07/01 18:34:09;;;;;;;5.22;3.10;;;;;;;;;;5021684;28;20048;-84
2022/07/01 18:36:50;;;;;;;8.45;3.10;;;;;;;;;;5012377;28;20109;-83
2022/07/01 18:39:18;;;;;;;7.18;3.35;;;;;;;;;;5022748;28;20045;-84
2022/07/01 18:41:45;;;;;;;6.93;3.08;;;;;;;;;;5023703;28;20404;-84
2022/07/01 18:44:13;;;;;;;5.47;2.90;;;;;;;;;;5023876;28;20128;-84
2022/07/01 18:46:47;;;;;;;10.85;3.22;;;;;;;;;;5022173;28;20041;-84
2022/07/01 18:49:15;;;;;;;7.68;3.05;;;;;;;;;;5024576;28;20042;-84
2022/07/01 18:51:43;;;;;;;10.10;3.47;;;;;;;;;;5025526;28;20049;-84
2022/07/01 18:54:36;;;;;;;7.68;3.17;;;;;;;;;;5024557;28;20025;-84
2022/07/01 18:57:04;;;;;;;6.35;3.35;;;;;;;;;;5005678;28;20053;-83
2022/07/01 18:59:31;;;;;;;6.18;2.90;;;;;;;;;;5005404;28;20405;-84
2022/07/01 19:02:05;;;;;;;7.43;3.10;;;;;;;;;;5005135;28;20104;-83
2022/07/01 19:04:57;;;;;;;7.25;3.20;;;;;;;;;;5026979;28;20041;-84
2022/07/01 19:07:29;;;;;;;8.25;2.95;;;;;;;;;;4988897;28;20065;-84
2022/07/01 19:10:00;;;;;;;7.13;3.08;;;;;;;;;;5023454;28;20061;-83
2022/07/01 19:12:27;;;;;;;9.32;3.58;;;;;;;;;;5020391;28;20447;-83
2022/07/01 19:15:19;;;;;;;6.43;3.42;;;;;;;;;;5022443;28;20038;-84
2022/07/01 19:17:48;;;;;;;7.57;2.70;;;;;;;;;;5004267;28;20446;-84
2022/07/01 19:20:16;;;;;;;5.45;2.80;;;;;;;;;;4989069;28;20041;-83
2022/07/01 19:22:45;;;;;;;10.30;3.08;;;;;;;;;;5006612;28;20046;-83
2022/07/01 19:25:13;;;;;;;5.97;3.00;;;;;;;;;;5024448;28;20080;-83
2022/07/01 19:27:45;;;;;;;6.75;3.40;;;;;;;;;;5023594;28;20049;-83
2022/07/01 19:30:13;;;;;;;6.88;3.10;;;;;;;;;;5022584;28;20041;-84
2022/07/01 19:32:41;;;;;;;6.45;3.00;;;;;;;;;;5021982;28;20112;-84
2022/07/01 19:35:13;;;;;;;9.60;4.13;;;;;;;;;;5019017;28;20044;-83